Time;durP1;ratioP1;P1;durP2;ratioP2;P2;SDS_P1;SDS_P2;PMS_P1;PMS_P2;Temp;Humidity;BMP_temperature;BMP_pressure;BME280_temperature;BME280_humidity;BME280_pressure;Samples;Min_cycle;Max_cycle;Signal;HPM_P1;HPM_P2
2021/08/11 00:02:15;;;;;;;19.45;7.75;;;;;;;19.96;59.66;93613.59;5022275;28;20030;-57
2021/08/11 00:04:41;;;;;;;10.02;6.70;;;;;;;19.85;59.98;93619.91;5012976;28;20034;-58
2021/08/11 00:07:06;;;;;;;8.65;6.45;;;;;;;19.74;60.17;93608.66;5013104;28;20033;-58
2021/08/11 00:09:32;;;;;;;7.45;6.75;;;;;;;19.82;60.12;93606.38;5013236;28;20487;-57
2021/08/11 00:11:58;;;;;;;7.10;6.40;;;;;;;19.79;60.05;93602.00;5013090;28;20446;-54
2021/08/11 00:14:24;;;;;;;9.05;6.82;;;;;;;19.78;60.28;93606.84;5013020;28;20026;-54
2021/08/11 00:16:49;;;;;;;7.90;7.20;;;;;;;19.73;60.12;93605.13;5013080;28;20030;-55
2021/08/11 00:19:15;;;;;;;7.13;6.35;;;;;;;19.70;60.37;93611.22;5012649;28;20080;-56
2021/08/11 00:21:41;;;;;;;6.95;5.85;;;;;;;19.60;60.49;93598.03;5012964;28;20034;-51
2021/08/11 00:24:06;;;;;;;7.03;6.32;;;;;;;19.57;60.76;93598.53;5016752;28;20094;-54
2021/08/11 00:26:32;;;;;;;9.65;6.25;;;;;;;19.44;60.42;93594.22;5032347;28;20025;-55
2021/08/11 00:28:58;;;;;;;8.32;6.45;;;;;;;19.38;60.95;93601.50;5032373;28;20108;-56
2021/08/11 00:31:23;;;;;;;7.63;6.93;;;;;;;19.42;61.17;93607.38;5032213;28;20172;-56
2021/08/11 00:33:49;;;;;;;10.30;6.95;;;;;;;19.44;61.11;93604.69;5032243;28;20076;-52
2021/08/11 00:36:15;;;;;;;9.50;6.68;;;;;;;19.44;61.16;93605.44;5032377;28;20021;-49
2021/08/11 00:38:40;;;;;;;9.20;7.05;;;;;;;19.36;61.17;93610.50;5032297;28;20018;-56
2021/08/11 00:41:05;;;;;;;14.52;7.15;;;;;;;19.23;61.66;93607.50;5032377;28;20020;-54
2021/08/11 00:43:31;;;;;;;7.60;6.90;;;;;;;19.06;62.28;93593.81;5032089;28;20025;-53
2021/08/11 00:45:56;;;;;;;8.77;7.40;;;;;;;18.96;62.31;93591.06;5032269;28;20509;-50
2021/08/11 00:48:25;;;;;;;7.90;7.20;;;;;;;18.94;62.44;93610.53;5032103;28;20021;-52
2021/08/11 00:50:50;;;;;;;8.48;7.25;;;;;;;19.02;62.23;93608.25;5031693;28;20060;-54
2021/08/11 00:53:16;;;;;;;7.88;7.00;;;;;;;18.99;61.95;93597.53;5031807;28;20033;-59
2021/08/11 00:55:42;;;;;;;7.70;6.80;;;;;;;18.98;62.26;93590.47;5032050;28;20040;-59
2021/08/11 00:58:11;;;;;;;8.18;7.05;;;;;;;18.94;62.50;93593.75;5025249;28;20380;-58
2021/08/11 01:00:46;;;;;;;8.30;7.50;;;;;;;18.96;62.32;93596.66;5012081;28;20030;-58
2021/08/11 01:03:22;;;;;;;9.95;6.78;;;;;;;19.08;62.07;93600.25;5010610;28;20112;-58
2021/08/11 01:05:49;;;;;;;8.00;7.30;;;;;;;18.87;61.82;93594.66;5012126;28;20026;-58
2021/08/11 01:08:16;;;;;;;10.73;7.80;;;;;;;18.87;62.21;93605.84;5011948;28;20109;-58
2021/08/11 01:10:42;;;;;;;8.82;7.97;;;;;;;18.68;63.06;93597.59;5011986;28;20439;-58
2021/08/11 01:13:09;;;;;;;8.27;7.43;;;;;;;18.92;62.44;93613.19;5010690;28;20109;-52
2021/08/11 01:15:36;;;;;;;8.23;7.43;;;;;;;18.92;62.34;93602.00;5011852;28;20104;-59
2021/08/11 01:18:01;;;;;;;9.70;6.65;;;;;;;18.81;62.55;93608.25;5011899;28;20611;-59
2021/08/11 01:20:27;;;;;;;8.75;7.88;;;;;;;18.74;62.68;93604.34;5011479;28;20026;-59
2021/08/11 01:22:57;;;;;;;10.60;7.50;;;;;;;18.71;62.71;93608.31;5010649;28;20026;-60
2021/08/11 01:25:35;;;;;;;9.85;7.57;;;;;;;18.72;62.63;93603.47;5013226;28;20037;-59
2021/08/11 01:28:03;;;;;;;9.25;7.40;;;;;;;18.66;62.91;93603.81;5013469;28;20022;-60
2021/08/11 01:30:47;;;;;;;8.57;7.63;;;;;;;18.67;62.73;93591.28;5031424;28;20033;-60
2021/08/11 01:33:31;;;;;;;8.77;7.85;;;;;;;18.73;62.18;93588.88;5030978;28;20051;-60
2021/08/11 01:36:12;;;;;;;8.60;7.45;;;;;;;18.71;62.23;93583.13;5013367;28;20419;-56
2021/08/11 01:38:38;;;;;;;12.20;7.60;;;;;;;18.69;62.19;93580.22;5031143;28;20018;-57
2021/08/11 01:41:06;;;;;;;12.20;7.85;;;;;;;18.61;62.31;93574.09;5030061;28;20152;-56
2021/08/11 01:43:37;;;;;;;7.82;7.03;;;;;;;18.65;62.51;93579.94;5031135;28;20021;-56
2021/08/11 01:46:04;;;;;;;9.43;7.38;;;;;;;18.40;62.56;93545.38;5029962;28;20083;-55
2021/08/11 01:48:30;;;;;;;8.18;7.40;;;;;;;18.62;62.35;93586.03;5029542;28;20040;-56
2021/08/11 01:50:56;;;;;;;7.97;7.15;;;;;;;18.54;62.10;93591.78;5030621;28;20052;-57
2021/08/11 01:53:23;;;;;;;8.23;7.32;;;;;;;18.46;62.27;93591.25;5031037;28;20023;-55
2021/08/11 01:55:56;;;;;;;7.78;6.97;;;;;;;18.30;62.76;93586.63;5023475;28;20033;-56
2021/08/11 01:58:23;;;;;;;7.38;6.50;;;;;;;18.29;62.63;93587.94;5021589;28;20013;-60
2021/08/11 02:00:50;;;;;;;7.55;6.85;;;;;;;18.09;62.97;93565.69;5040040;28;20119;-61
2021/08/11 02:03:19;;;;;;;8.43;7.60;;;;;;;18.00;63.88;93569.25;5039722;28;20017;-59
2021/08/11 02:05:45;;;;;;;8.70;7.63;;;;;;;18.12;63.80;93586.84;5018771;28;20028;-58
2021/08/11 02:08:11;;;;;;;8.77;7.88;;;;;;;18.22;63.52;93584.00;5021464;28;20233;-59
2021/08/11 02:10:37;;;;;;;8.85;6.95;;;;;;;18.30;63.15;93592.22;5040698;28;20025;-59
2021/08/11 02:13:04;;;;;;;7.43;6.72;;;;;;;18.23;63.16;93588.28;5027996;28;20095;-59
2021/08/11 02:15:30;;;;;;;8.38;7.57;;;;;;;18.25;62.88;93593.25;5001579;28;20021;-59
2021/08/11 02:17:56;;;;;;;8.07;7.00;;;;;;;18.18;63.14;93594.91;5020907;28;20105;-59
2021/08/11 02:20:22;;;;;;;9.15;7.68;;;;;;;18.22;63.37;93600.03;5020318;28;20660;-55
2021/08/11 02:22:47;;;;;;;9.50;7.40;;;;;;;18.17;63.20;93601.81;5018940;28;20024;-57
2021/08/11 02:25:13;;;;;;;8.88;7.00;;;;;;;18.13;62.85;93602.28;5025456;28;20033;-57
2021/08/11 02:27:47;;;;;;;7.43;6.63;;;;;;;18.06;63.28;93591.28;5027826;28;20490;-51
2021/08/11 02:30:14;;;;;;;7.05;6.18;;;;;;;17.92;63.66;93596.63;5030773;28;20080;-51
2021/08/11 02:32:51;;;;;;;7.35;6.50;;;;;;;17.89;64.14;93597.81;5030105;28;20079;-51
2021/08/11 02:35:20;;;;;;;9.23;7.45;;;;;;;17.83;64.33;93588.28;5030374;28;20413;-49
2021/08/11 02:38:03;;;;;;;7.38;6.65;;;;;;;17.87;64.52;93588.56;5030061;28;20025;-49
2021/08/11 02:40:38;;;;;;;8.63;6.63;;;;;;;17.83;64.67;93602.97;5030171;28;20043;-49
2021/08/11 02:43:21;;;;;;;8.23;7.43;;;;;;;17.78;64.50;93597.72;5029282;28;20025;-49
2021/08/11 02:45:51;;;;;;;9.00;7.68;;;;;;;17.80;64.50;93601.38;5029150;28;20026;-50
2021/08/11 02:48:17;;;;;;;8.57;7.78;;;;;;;17.70;64.87;93592.28;5029103;28;20025;-48
2021/08/11 02:50:43;;;;;;;14.18;8.38;;;;;;;17.68;64.86;93591.41;5028741;28;20041;-55
2021/08/11 02:53:11;;;;;;;9.60;7.78;;;;;;;17.72;64.41;93584.06;5029000;28;20083;-53
2021/08/11 02:55:37;;;;;;;12.32;7.65;;;;;;;17.77;64.54;93585.81;5030253;28;20033;-55
2021/08/11 02:58:03;;;;;;;14.10;7.80;;;;;;;17.72;64.58;93586.09;5018552;28;20075;-55
2021/08/11 03:00:29;;;;;;;8.88;6.90;;;;;;;17.73;64.15;93588.31;5029886;28;20049;-55
2021/08/11 03:02:54;;;;;;;9.38;7.57;;;;;;;17.73;63.91;93587.59;5012542;28;20035;-57
2021/08/11 03:05:20;;;;;;;8.57;7.78;;;;;;;17.78;63.64;93594.94;5012316;28;20033;-58
2021/08/11 03:07:46;;;;;;;8.20;7.43;;;;;;;17.71;64.09;93596.56;5029994;28;20080;-58
2021/08/11 03:10:11;;;;;;;15.15;7.55;;;;;;;17.70;64.43;93589.50;5012575;28;20025;-57
2021/08/11 03:12:37;;;;;;;9.40;7.20;;;;;;;17.69;64.19;93587.31;5030002;28;20495;-57
2021/08/11 03:15:05;;;;;;;13.70;7.05;;;;;;;17.60;64.56;93602.03;5012452;28;20461;-56
2021/08/11 03:17:31;;;;;;;9.13;6.40;;;;;;;17.64;64.32;93600.25;5012236;28;20025;-58
2021/08/11 03:19:56;;;;;;;8.38;6.95;;;;;;;17.44;64.97;93596.00;5039513;28;20036;-57
2021/08/11 03:22:22;;;;;;;10.20;7.10;;;;;;;17.56;64.73;93601.75;5038345;28;20029;-58
2021/08/11 03:24:48;;;;;;;13.13;6.82;;;;;;;17.58;64.30;93604.66;5030745;28;20022;-59
2021/08/11 03:27:13;;;;;;;14.05;7.93;;;;;;;17.52;64.75;93604.97;5039010;28;20045;-59
2021/08/11 03:29:38;;;;;;;9.95;6.93;;;;;;;17.42;64.96;93607.03;5039130;28;20402;-50
2021/08/11 03:32:04;;;;;;;11.55;6.70;;;;;;;17.44;64.44;93607.91;5040448;28;20486;-58
2021/08/11 03:34:30;;;;;;;7.43;6.68;;;;;;;17.42;64.22;93607.03;5035884;28;20076;-59
2021/08/11 03:36:56;;;;;;;9.07;6.85;;;;;;;17.38;64.78;93607.47;5041492;28;20654;-58
2021/08/11 03:39:21;;;;;;;10.65;7.30;;;;;;;17.35;65.09;93605.13;5043632;28;20025;-58
2021/08/11 03:41:47;;;;;;;7.28;6.22;;;;;;;17.30;65.55;93608.97;5041495;28;20017;-56
2021/08/11 03:44:13;;;;;;;9.18;6.78;;;;;;;17.22;66.05;93600.72;5042978;28;20021;-55
2021/08/11 03:46:38;;;;;;;10.50;6.95;;;;;;;17.19;65.94;93601.91;5042732;28;20037;-56
2021/08/11 03:49:04;;;;;;;7.80;7.00;;;;;;;17.17;66.35;93601.75;5041297;28;20026;-60
2021/08/11 03:51:29;;;;;;;8.57;6.53;;;;;;;17.18;66.07;93591.31;5023102;28;20049;-51
2021/08/11 03:53:55;;;;;;;9.48;6.88;;;;;;;17.35;65.87;93616.28;5013515;28;20033;-57
2021/08/11 03:56:20;;;;;;;11.32;7.75;;;;;;;17.39;65.51;93616.56;5013403;28;20396;-57
2021/08/11 03:58:46;;;;;;;27.48;7.25;;;;;;;17.41;65.61;93616.72;5032912;28;20656;-60
2021/08/11 04:01:11;;;;;;;8.68;6.40;;;;;;;17.40;65.61;93609.66;5032443;28;20300;-59
2021/08/11 04:23:37;;;;;;;13.60;8.15;;;;;;;18.63;62.38;93615.44;5086951;27;21295;-58
2021/08/11 04:26:03;;;;;;;16.90;10.13;;;;;;;18.62;62.36;93613.97;5087460;28;20114;-58
2021/08/11 04:28:28;;;;;;;15.85;12.77;;;;;;;18.58;61.90;93613.72;5087624;28;20024;-58
2021/08/11 04:30:54;;;;;;;17.75;11.98;;;;;;;18.43;62.72;93625.97;5087493;28;20036;-58
2021/08/11 04:33:19;;;;;;;17.83;10.25;;;;;;;18.50;62.91;93618.75;5087587;28;20481;-59
2021/08/11 04:35:45;;;;;;;16.30;11.60;;;;;;;18.50;62.60;93618.75;5087503;28;20024;-58
2021/08/11 04:38:10;;;;;;;12.80;10.02;;;;;;;18.54;63.00;93613.41;5086643;28;20432;-58
2021/08/11 04:40:37;;;;;;;10.32;8.82;;;;;;;18.65;62.83;93615.56;5087377;28;20020;-58
2021/08/11 04:43:03;;;;;;;17.77;11.55;;;;;;;18.76;62.64;93618.44;5086950;28;20048;-57
2021/08/11 04:45:29;;;;;;;14.02;10.57;;;;;;;18.84;62.08;93618.97;5086980;28;20074;-61
2021/08/11 04:47:55;;;;;;;12.48;9.80;;;;;;;18.87;62.16;93617.78;5087242;28;20028;-62
2021/08/11 04:50:20;;;;;;;18.42;10.40;;;;;;;18.91;62.10;93612.44;5086913;28;20016;-59
2021/08/11 04:52:45;;;;;;;14.25;11.02;;;;;;;18.92;62.19;93613.94;5087112;28;20028;-59
2021/08/11 04:55:12;;;;;;;11.90;9.75;;;;;;;18.88;62.70;93613.66;5085944;28;20085;-59
2021/08/11 04:57:38;;;;;;;12.85;9.13;;;;;;;18.94;62.98;93607.72;5087078;28;20067;-61
2021/08/11 05:00:04;;;;;;;24.42;9.57;;;;;;;19.00;62.95;93612.97;5086770;28;20493;-59
2021/08/11 05:02:29;;;;;;;19.90;8.90;;;;;;;18.90;63.24;93590.69;5086641;28;20016;-58
2021/08/11 05:04:55;;;;;;;9.75;8.75;;;;;;;19.16;62.94;93614.78;5086884;28;20104;-60
2021/08/11 05:07:20;;;;;;;11.55;10.32;;;;;;;19.23;62.93;93616.63;5086607;28;20031;-60
2021/08/11 05:09:46;;;;;;;14.02;9.32;;;;;;;19.27;62.47;93616.16;5086523;28;20021;-59
2021/08/11 05:12:11;;;;;;;19.13;10.23;;;;;;;19.31;62.13;93611.56;5086191;28;20016;-60
2021/08/11 05:14:37;;;;;;;12.63;9.57;;;;;;;19.39;62.78;93606.50;5084113;28;20021;-58
2021/08/11 05:17:02;;;;;;;39.50;11.82;;;;;;;19.47;63.08;93603.47;5072918;28;20016;-59
2021/08/11 05:19:28;;;;;;;47.58;16.23;;;;;;;19.55;62.69;93598.41;5073124;28;20081;-59
2021/08/11 05:21:53;;;;;;;29.85;16.98;;;;;;;19.71;62.85;93615.50;5072535;28;20044;-60
2021/08/11 05:24:18;;;;;;;44.30;28.42;;;;;;;19.79;62.94;93627.94;5073103;28;20024;-62
2021/08/11 05:26:45;;;;;;;42.72;35.10;;;;;;;19.92;62.73;93624.56;5072980;28;20016;-61
2021/08/11 05:29:20;;;;;;;42.88;37.90;;;;;;;19.98;63.07;93615.78;5071345;28;20021;-61
2021/08/11 05:31:46;;;;;;;25.75;19.77;;;;;;;20.00;62.96;93611.03;5072411;28;20505;-61
2021/08/11 05:34:12;;;;;;;23.80;21.25;;;;;;;20.12;63.29;93616.66;5072938;28;20024;-61
2021/08/11 05:36:37;;;;;;;18.80;14.88;;;;;;;20.26;63.04;93614.75;5072472;28;20028;-62
2021/08/11 05:39:03;;;;;;;17.48;13.68;;;;;;;20.20;62.66;93591.94;5072142;28;20567;-61
2021/08/11 05:41:29;;;;;;;17.63;10.25;;;;;;;20.48;62.68;93610.47;5072344;28;20028;-60
2021/08/11 05:43:54;;;;;;;11.20;9.15;;;;;;;20.62;62.13;93613.41;5072648;28;20028;-60
2021/08/11 05:46:20;;;;;;;44.45;10.93;;;;;;;20.72;61.42;93605.59;5071922;28;20028;-59
2021/08/11 05:48:45;;;;;;;65.50;11.70;;;;;;;20.78;61.37;93614.34;5072165;28;20032;-60
2021/08/11 05:51:13;;;;;;;17.35;9.57;;;;;;;20.71;61.01;93595.69;5071789;28;20070;-59
2021/08/11 05:53:39;;;;;;;14.25;8.98;;;;;;;20.91;60.76;93613.72;5072658;28;20035;-59
2021/08/11 05:56:04;;;;;;;10.80;8.73;;;;;;;21.08;60.57;93610.53;5071387;28;20021;-60
2021/08/11 05:58:30;;;;;;;11.57;8.88;;;;;;;21.18;59.95;93613.19;5072126;28;20020;-60
2021/08/11 06:00:55;;;;;;;12.18;8.38;;;;;;;21.29;59.90;93618.06;5071850;28;20021;-60
2021/08/11 06:03:21;;;;;;;12.32;9.68;;;;;;;21.39;59.58;93616.53;5071691;28;20012;-60
2021/08/11 06:05:46;;;;;;;23.95;9.57;;;;;;;21.47;60.10;93610.63;5072178;28;20032;-60
2021/08/11 06:08:12;;;;;;;17.58;10.05;;;;;;;21.56;60.75;93613.28;5071869;28;20019;-61
2021/08/11 06:10:38;;;;;;;13.75;9.25;;;;;;;21.64;61.25;93605.31;5072104;28;20032;-60
2021/08/11 06:13:04;;;;;;;14.15;8.98;;;;;;;21.76;60.12;93605.25;5071342;28;20039;-60
2021/08/11 06:15:29;;;;;;;15.35;11.05;;;;;;;21.95;59.79;93604.94;5071668;28;20016;-59
2021/08/11 06:17:55;;;;;;;15.05;8.98;;;;;;;22.16;58.50;93618.72;5071129;28;20024;-60
2021/08/11 06:20:22;;;;;;;18.60;10.70;;;;;;;22.25;57.62;93617.81;5071959;28;20032;-60
2021/08/11 06:22:48;;;;;;;11.60;8.10;;;;;;;22.29;55.97;93603.97;5071455;28;20092;-61
2021/08/11 06:25:14;;;;;;;8.80;7.65;;;;;;;22.41;56.01;93613.06;5071824;28;20035;-60
2021/08/11 06:27:40;;;;;;;15.55;8.82;;;;;;;22.50;56.12;93614.22;5070874;28;20027;-60
2021/08/11 06:30:07;;;;;;;20.77;8.27;;;;;;;22.56;55.97;93620.16;5071719;28;20016;-60
2021/08/11 06:32:33;;;;;;;9.00;7.22;;;;;;;22.67;55.75;93610.91;5071659;28;20028;-60
2021/08/11 06:34:58;;;;;;;7.68;6.90;;;;;;;22.82;54.71;93612.34;5071173;28;20028;-56
2021/08/11 06:37:23;;;;;;;11.30;7.10;;;;;;;22.92;54.30;93599.53;5071251;28;20017;-58
2021/08/11 06:39:49;;;;;;;16.23;7.15;;;;;;;23.08;57.00;93586.28;5071330;28;20020;-59
2021/08/11 06:42:15;;;;;;;46.45;8.25;;;;;;;23.29;52.61;93571.06;5071290;28;20021;-56
2021/08/11 06:44:40;;;;;;;12.80;7.10;;;;;;;23.59;52.82;93594.38;5071426;28;20020;-60
2021/08/11 06:47:06;;;;;;;39.15;7.80;;;;;;;23.75;52.38;93598.72;5070822;28;20063;-59
2021/08/11 06:49:31;;;;;;;16.30;7.88;;;;;;;23.84;52.17;93592.09;5071468;28;20024;-62
2021/08/11 06:51:57;;;;;;;7.57;6.70;;;;;;;24.10;50.60;93598.97;5071027;28;20501;-62
2021/08/11 06:54:22;;;;;;;7.43;5.85;;;;;;;24.21;49.82;93602.28;5071018;28;20016;-62
2021/08/11 06:56:48;;;;;;;7.80;6.82;;;;;;;24.30;50.17;93606.94;5071270;28;20025;-62
2021/08/11 06:59:13;;;;;;;7.10;6.40;;;;;;;24.39;49.81;93601.00;5070932;28;20024;-61
2021/08/11 07:01:38;;;;;;;9.50;6.25;;;;;;;24.52;49.02;93607.91;5070971;28;20031;-63
2021/08/11 07:04:04;;;;;;;10.27;6.10;;;;;;;24.63;49.96;93615.47;5071022;28;20008;-59
2021/08/11 07:06:30;;;;;;;7.60;6.13;;;;;;;24.80;49.29;93612.75;5070886;28;20025;-59
2021/08/11 07:08:55;;;;;;;12.50;6.93;;;;;;;24.94;49.74;93615.47;5069408;28;20024;-57
2021/08/11 07:11:21;;;;;;;7.22;5.88;;;;;;;25.08;48.22;93607.59;5069583;28;20062;-57
2021/08/11 07:13:46;;;;;;;8.02;6.18;;;;;;;25.29;46.60;93609.19;5069033;28;20039;-58
2021/08/11 07:16:11;;;;;;;8.40;5.95;;;;;;;25.45;46.56;93613.44;5068770;28;20024;-59
2021/08/11 07:18:37;;;;;;;8.88;6.07;;;;;;;25.78;46.29;93611.94;5069216;28;20584;-57
2021/08/11 07:21:03;;;;;;;8.02;5.22;;;;;;;26.16;42.73;93610.66;5069210;28;20032;-57
2021/08/11 07:23:28;;;;;;;5.85;5.15;;;;;;;26.53;42.06;93595.78;5069009;28;20036;-57
2021/08/11 07:25:54;;;;;;;6.63;5.43;;;;;;;26.93;42.86;93594.44;5069080;28;20560;-57
2021/08/11 07:28:19;;;;;;;10.38;7.00;;;;;;;27.29;41.15;93597.84;5069416;28;20112;-60
2021/08/11 07:30:45;;;;;;;8.32;7.50;;;;;;;27.59;38.10;93593.22;5070259;28;20409;-60
2021/08/11 07:33:11;;;;;;;7.55;6.95;;;;;;;27.90;37.80;93584.28;5049519;28;20029;-59
2021/08/11 07:35:37;;;;;;;8.02;7.35;;;;;;;28.21;37.07;93588.81;5047935;28;20024;-56
2021/08/11 07:38:03;;;;;;;15.68;8.85;;;;;;;28.91;35.75;93582.38;5047971;28;20413;-52
2021/08/11 07:40:29;;;;;;;10.75;7.72;;;;;;;29.35;32.81;93577.19;5048147;28;20051;-54
2021/08/11 07:42:55;;;;;;;35.92;9.18;;;;;;;30.15;31.06;93577.78;5047950;28;20086;-55
2021/08/11 07:45:21;;;;;;;6.13;5.57;;;;;;;31.52;28.64;93580.66;5047841;28;20033;-55
2021/08/11 07:47:48;;;;;;;9.15;7.18;;;;;;;32.82;26.46;93582.75;5047122;28;20052;-52
2021/08/11 07:50:16;;;;;;;293.92;163.38;;;;;;;34.22;25.42;93582.81;5048348;28;20426;-52
2021/08/11 07:52:42;;;;;;;724.88;437.10;;;;;;;35.98;22.45;93583.66;5030024;28;20501;-56
2021/08/11 07:55:08;;;;;;;1891.57;907.10;;;;;;;36.76;20.18;93580.72;5047866;28;20029;-55
2021/08/11 07:57:34;;;;;;;1990.10;979.63;;;;;;;37.79;18.92;93577.47;5047919;28;20033;-53
2021/08/11 07:59:59;;;;;;;1999.90;999.90;;;;;;;38.68;18.29;93572.47;5047754;28;20563;-55
2021/08/11 08:02:25;;;;;;;1999.90;999.90;;;;;;;39.81;17.49;93584.88;5048022;28;20029;-54
2021/08/11 08:04:51;;;;;;;1999.90;999.90;;;;;;;40.29;16.72;93584.16;5048061;28;20491;-55
2021/08/11 08:07:16;;;;;;;1999.90;999.90;;;;;;;41.16;16.42;93577.59;5047874;28;20039;-55
2021/08/11 08:09:42;;;;;;;1999.90;999.90;;;;;;;41.92;15.98;93575.28;5047738;28;20075;-55
2021/08/11 08:12:07;;;;;;;1999.90;999.90;;;;;;;42.18;15.17;93576.91;5050469;28;20035;-55
2021/08/11 08:14:33;;;;;;;1999.90;999.90;;;;;;;41.13;15.68;93584.88;5067930;28;20032;-52
2021/08/11 08:16:59;;;;;;;1999.90;999.90;;;;;;;39.91;16.74;93578.94;5068106;28;20056;-51
2021/08/11 08:19:24;;;;;;;1999.90;999.90;;;;;;;38.63;18.43;93590.53;5067587;28;20021;-58
2021/08/11 08:21:50;;;;;;;1999.90;999.90;;;;;;;37.32;19.55;93567.63;5067401;28;20133;-55
2021/08/11 08:24:15;;;;;;;1999.90;999.90;;;;;;;36.08;20.97;93586.53;5065805;28;20509;-54
2021/08/11 08:26:42;;;;;;;1999.90;999.90;;;;;;;36.57;20.84;93582.22;5066485;28;20089;-50
2021/08/11 08:29:08;;;;;;;1999.90;999.90;;;;;;;37.37;19.54;93583.44;5066874;28;20516;-57
2021/08/11 08:31:34;;;;;;;1999.90;999.90;;;;;;;39.07;17.82;93574.94;5066665;28;20573;-54
2021/08/11 08:34:00;;;;;;;1999.90;999.90;;;;;;;40.59;16.14;93566.31;5066367;28;20093;-54
2021/08/11 08:36:25;;;;;;;1999.90;999.90;;;;;;;41.26;14.96;93573.81;5048611;28;20033;-54
2021/08/11 08:38:51;;;;;;;1999.90;999.90;;;;;;;41.75;14.41;93579.31;5048520;28;20064;-57
2021/08/11 08:41:17;;;;;;;1999.90;999.90;;;;;;;42.33;13.46;93572.19;5049010;28;20025;-55
2021/08/11 08:43:43;;;;;;;1999.90;999.90;;;;;;;42.65;13.24;93568.50;5066741;28;20064;-57
2021/08/11 08:46:09;;;;;;;1999.90;999.90;;;;;;;43.13;11.91;93572.31;5066376;28;20059;-55
2021/08/11 08:48:38;;;;;;;1999.90;999.90;;;;;;;42.64;13.49;93569.25;5065239;28;20078;-57
2021/08/11 08:51:04;;;;;;;1999.90;999.90;;;;;;;42.72;12.75;93569.75;5068690;28;20747;-55
2021/08/11 08:53:30;;;;;;;1999.90;999.90;;;;;;;42.73;12.82;93568.28;5052568;28;20024;-54
2021/08/11 08:55:56;;;;;;;1999.90;999.90;;;;;;;42.47;13.71;93571.88;5070528;28;20047;-56
2021/08/11 08:58:21;;;;;;;1999.90;999.90;;;;;;;42.05;13.04;93567.75;5052480;28;20085;-58
2021/08/11 09:00:47;;;;;;;1999.90;999.90;;;;;;;41.14;13.14;93547.94;5070610;28;20028;-58
2021/08/11 09:03:12;;;;;;;1999.90;999.90;;;;;;;39.39;14.90;93572.41;5070124;28;20078;-58
2021/08/11 09:05:38;;;;;;;1999.90;999.90;;;;;;;39.33;15.58;93554.44;5069815;28;20039;-59
2021/08/11 09:08:07;;;;;;;1999.90;999.90;;;;;;;39.56;15.25;93552.72;5070047;28;20035;-57
2021/08/11 09:10:32;;;;;;;1999.90;999.90;;;;;;;40.24;14.72;93567.63;5070026;28;20079;-57
2021/08/11 09:12:59;;;;;;;1999.90;999.90;;;;;;;40.80;13.74;93564.47;5069235;28;20056;-57
2021/08/11 09:15:32;;;;;;;1999.90;999.90;;;;;;;41.26;13.37;93565.13;5070229;28;20682;-58
2021/08/11 09:17:59;;;;;;;1999.90;999.90;;;;;;;41.26;13.90;93565.81;5069985;28;20051;-58
2021/08/11 09:20:27;;;;;;;1999.90;999.90;;;;;;;41.40;13.27;93567.72;5069662;28;20532;-59
2021/08/11 09:22:55;;;;;;;1999.90;999.90;;;;;;;41.76;13.08;93574.97;5069698;28;20048;-58
2021/08/11 09:25:21;;;;;;;1999.90;999.90;;;;;;;41.86;13.88;93572.53;5069784;28;20067;-57
2021/08/11 09:27:47;;;;;;;1999.90;999.90;;;;;;;42.61;12.83;93565.69;5070126;28;20748;-60
2021/08/11 09:30:21;;;;;;;1999.90;999.90;;;;;;;42.47;13.53;93568.25;5069686;28;20089;-58
2021/08/11 09:33:00;;;;;;;1999.90;999.90;;;;;;;43.29;14.07;93568.28;5051571;28;20825;-59
2021/08/11 09:35:31;;;;;;;1999.90;999.90;;;;;;;42.98;13.67;93568.38;5069724;28;20103;-56
2021/08/11 09:38:06;;;;;;;1999.90;999.90;;;;;;;41.92;14.74;93572.41;5069798;28;20111;-56
2021/08/11 09:40:33;;;;;;;1999.90;999.90;;;;;;;41.16;14.84;93571.78;5069660;28;20052;-57
2021/08/11 09:43:01;;;;;;;1999.90;999.90;;;;;;;39.38;16.64;93555.81;5068804;28;20115;-58
2021/08/11 09:45:42;;;;;;;1999.90;999.90;;;;;;;39.42;16.93;93567.31;5068946;28;20426;-57
2021/08/11 09:48:07;;;;;;;1999.90;999.90;;;;;;;38.38;17.62;93561.19;5068565;28;20036;-57
2021/08/11 09:50:35;;;;;;;1999.90;999.90;;;;;;;37.41;18.07;93563.25;5069323;28;20436;-57
2021/08/11 09:53:01;;;;;;;1999.90;999.90;;;;;;;37.23;18.41;93564.06;5051522;28;20039;-58
2021/08/11 09:55:27;;;;;;;1999.90;999.90;;;;;;;37.18;19.05;93565.53;5068899;28;20111;-58
2021/08/11 09:57:52;;;;;;;1999.90;999.90;;;;;;;37.04;18.81;93572.03;5068805;28;20096;-62
2021/08/11 10:00:18;;;;;;;1999.90;999.90;;;;;;;36.50;19.45;93564.25;5069031;28;20409;-57
2021/08/11 10:02:45;;;;;;;1999.90;999.90;;;;;;;35.56;20.87;93567.75;5069200;28;20432;-58
2021/08/11 10:05:35;;;;;;;1999.90;999.90;;;;;;;35.34;21.77;93564.81;5068997;28;20057;-58
2021/08/11 10:08:01;;;;;;;1999.90;999.90;;;;;;;35.50;21.65;93555.53;5068890;28;20039;-63
2021/08/11 10:10:27;;;;;;;1999.90;999.90;;;;;;;36.94;20.07;93557.69;5068985;28;20024;-59
2021/08/11 10:12:53;;;;;;;1999.90;999.90;;;;;;;38.25;18.74;93556.97;5068054;28;20043;-58
2021/08/11 10:15:19;;;;;;;1999.90;999.90;;;;;;;38.97;16.79;93560.63;5068485;28;20063;-56
2021/08/11 10:17:45;;;;;;;1999.90;999.90;;;;;;;40.19;16.10;93554.69;5068539;28;20036;-57
2021/08/11 10:20:12;;;;;;;1999.90;999.90;;;;;;;40.74;14.95;93535.63;5050705;28;20024;-57
2021/08/11 10:22:38;;;;;;;1999.90;999.90;;;;;;;40.98;14.47;93545.38;5050504;28;20080;-58
2021/08/11 10:25:04;;;;;;;1999.90;999.90;;;;;;;41.46;14.73;93539.31;5068843;28;20028;-58
2021/08/11 10:27:30;;;;;;;1999.90;999.90;;;;;;;42.33;14.18;93546.06;5068890;28;20650;-60
2021/08/11 10:29:56;;;;;;;1999.90;999.90;;;;;;;42.73;13.02;93545.03;5068569;28;20034;-60
2021/08/11 10:32:23;;;;;;;1999.90;999.90;;;;;;;43.47;13.03;93533.56;5050238;28;20748;-58
2021/08/11 10:34:48;;;;;;;1999.90;999.90;;;;;;;42.96;12.70;93540.09;5068397;28;20021;-58
2021/08/11 10:37:14;;;;;;;1999.90;999.90;;;;;;;42.55;12.94;93531.00;5050445;28;20833;-58
2021/08/11 10:39:40;;;;;;;1999.90;999.90;;;;;;;42.78;13.20;93528.94;5068114;28;20107;-58
2021/08/11 10:42:11;;;;;;;1999.90;999.90;;;;;;;43.02;13.20;93523.97;5068269;28;20020;-58
2021/08/11 10:44:37;;;;;;;1999.90;999.90;;;;;;;42.19;13.50;93521.00;5067896;28;20082;-56
2021/08/11 10:47:03;;;;;;;1999.90;999.90;;;;;;;41.74;13.42;93523.50;5068065;28;20565;-52
2021/08/11 10:49:29;;;;;;;1999.90;999.90;;;;;;;42.52;13.63;93512.22;5048792;28;20081;-49
2021/08/11 10:52:00;;;;;;;1999.90;999.90;;;;;;;42.92;11.84;93513.34;5067934;28;20024;-48
2021/08/11 10:54:26;;;;;;;1999.90;999.90;;;;;;;43.08;12.65;93512.88;5067910;28;20025;-55
2021/08/11 10:56:54;;;;;;;1999.90;999.90;;;;;;;43.06;11.94;93518.06;5067493;28;20124;-54
2021/08/11 10:59:27;;;;;;;1999.90;999.90;;;;;;;42.55;13.13;93510.69;5068168;28;20021;-56
2021/08/11 11:01:57;;;;;;;1999.90;999.90;;;;;;;43.03;11.68;93508.69;5068069;28;20129;-53
2021/08/11 11:04:38;;;;;;;1999.90;999.90;;;;;;;43.18;11.68;93503.19;5067551;28;20031;-53
2021/08/11 11:07:12;;;;;;;1999.90;999.90;;;;;;;42.61;12.73;93504.00;5067388;28;20770;-57
2021/08/11 11:09:40;;;;;;;1999.90;999.90;;;;;;;42.57;12.53;93507.00;5067015;28;20032;-54
2021/08/11 11:12:17;;;;;;;1999.90;999.90;;;;;;;42.04;11.99;93496.69;5067098;28;20402;-49
2021/08/11 11:14:46;;;;;;;1999.90;999.90;;;;;;;41.91;12.91;93494.84;5066920;28;20035;-52
2021/08/11 11:17:14;;;;;;;1999.90;999.90;;;;;;;41.62;12.63;93488.97;5067768;28;20040;-59
2021/08/11 11:20:16;;;;;;;1999.90;999.90;;;;;;;41.80;12.61;93493.66;5067389;28;20025;-57
2021/08/11 11:22:55;;;;;;;1999.90;999.90;;;;;;;41.73;12.41;93496.00;5066986;28;20048;-58
2021/08/11 11:25:53;;;;;;;1999.90;999.90;;;;;;;42.12;12.36;93481.28;5066883;28;20040;-58
2021/08/11 11:28:19;;;;;;;1999.90;999.90;;;;;;;42.00;13.09;93473.56;5067180;28;20421;-59
2021/08/11 11:30:44;;;;;;;1999.90;999.90;;;;;;;41.36;12.94;93467.09;5048773;28;20027;-59
2021/08/11 11:33:24;;;;;;;1999.90;999.90;;;;;;;40.97;12.88;93474.41;5048808;28;20032;-59
2021/08/11 11:36:24;;;;;;;1999.90;999.90;;;;;;;40.70;12.55;93474.91;5066976;28;20074;-61
2021/08/11 11:39:08;;;;;;;1999.90;999.90;;;;;;;40.31;13.34;93456.09;5067034;28;20035;-61